Time,TemperatureF,DewpointF,PressureIn,WindDirection,WindDirectionDegrees,WindSpeedMPH,WindSpeedGustMPH,Humidity,HourlyPrecipIn,Conditions,Clouds,dailyrainin,SoftwareType,DateUTC
2013-05-30 00:12:00,74.8,67.0,29.80,SSW,193,9.0,18.0,76,0.00,,,0.00,weatherlink.com 1.10,2013-05-30 05:12:00,
2013-05-30 00:27:00,74.7,66.0,29.80,South,189,9.0,16.0,74,0.00,,,0.00,weatherlink.com 1.10,2013-05-30 05:27:00,
2013-05-30 00:42:00,74.3,65.0,29.79,South,186,6.0,14.0,73,0.00,,,0.00,weatherlink.com 1.10,2013-05-30 05:42:00,
2013-05-30 00:57:00,74.0,65.0,29.78,SW,227,4.0,12.0,74,0.00,,,0.00,weatherlink.com 1.10,2013-05-30 05:57:00,
2013-05-30 01:12:00,73.6,65.0,29.78,South,178,4.0,10.0,74,0.00,,,0.00,weatherlink.com 1.10,2013-05-30 06:12:00,
2013-05-30 01:27:00,73.1,65.0,29.77,South,179,7.0,10.0,75,0.00,,,0.00,weatherlink.com 1.10,2013-05-30 06:27:00,
2013-05-30 01:43:00,72.5,65.0,29.77,South,172,8.0,13.0,76,0.00,,,0.00,weatherlink.com 1.10,2013-05-30 06:43:00,
2013-05-30 01:58:00,72.1,65.0,29.77,South,191,3.0,11.0,77,0.00,,,0.00,weatherlink.com 1.10,2013-05-30 06:58:00,
2013-05-30 02:13:00,71.5,65.0,29.76,South,179,5.0,12.0,79,0.00,,,0.00,weatherlink.com 1.10,2013-05-30 07:13:00,
2013-05-30 02:28:00,71.3,65.0,29.76,SW,236,5.0,13.0,79,0.00,,,0.00,weatherlink.com 1.10,2013-05-30 07:28:00,
2013-05-30 02:43:00,71.3,65.0,29.77,SSE,163,7.0,12.0,80,0.00,,,0.00,weatherlink.com 1.10,2013-05-30 07:43:00,
2013-05-30 02:58:00,71.2,65.0,29.77,South,180,5.0,12.0,80,0.00,,,0.00,weatherlink.com 1.10,2013-05-30 07:58:00,
2013-05-30 03:13:00,71.1,65.0,29.76,South,189,7.0,14.0,81,0.00,,,0.00,weatherlink.com 1.10,2013-05-30 08:13:00,
2013-05-30 03:28:00,71.1,65.0,29.76,SSW,200,6.0,12.0,81,0.00,,,0.00,weatherlink.com 1.10,2013-05-30 08:28:00,
2013-05-30 03:44:00,71.1,65.0,29.77,South,182,6.0,14.0,81,0.00,,,0.00,weatherlink.com 1.10,2013-05-30 08:44:00,
2013-05-30 03:58:00,71.2,65.0,29.77,South,184,3.0,12.0,81,0.00,,,0.00,weatherlink.com 1.10,2013-05-30 08:58:00,
2013-05-30 04:13:00,71.2,65.0,29.76,SSE,155,8.0,17.0,80,0.00,,,0.00,weatherlink.com 1.10,2013-05-30 09:13:00,
2013-05-30 04:28:00,71.0,65.0,29.75,South,191,6.0,15.0,80,0.00,,,0.00,weatherlink.com 1.10,2013-05-30 09:28:00,
2013-05-30 04:43:00,70.7,64.0,29.75,WSW,250,10.0,14.0,80,0.00,,,0.00,weatherlink.com 1.10,2013-05-30 09:43:00,
2013-05-30 04:58:00,70.5,64.0,29.75,South,183,11.0,15.0,80,0.00,,,0.00,weatherlink.com 1.10,2013-05-30 09:58:00,
2013-05-30 05:13:00,70.5,64.0,29.75,SW,235,12.0,16.0,80,0.00,,,0.00,weatherlink.com 1.10,2013-05-30 10:13:00,
2013-05-30 05:28:00,70.4,64.0,29.75,SSW,208,12.0,17.0,80,0.00,,,0.00,weatherlink.com 1.10,2013-05-30 10:28:00,
2013-05-30 05:43:00,70.5,64.0,29.75,SW,217,8.0,16.0,80,0.00,,,0.00,weatherlink.com 1.10,2013-05-30 10:43:00,
2013-05-30 05:58:00,71.0,65.0,29.76,SSW,201,5.0,18.0,80,0.00,,,0.00,weatherlink.com 1.10,2013-05-30 10:58:00,
2013-05-30 06:14:00,72.1,65.0,29.76,WSW,243,7.0,21.0,78,0.00,,,0.00,weatherlink.com 1.10,2013-05-30 11:14:00,
2013-05-30 06:29:00,72.8,65.0,29.75,South,187,8.0,24.0,77,0.00,,,0.00,weatherlink.com 1.10,2013-05-30 11:29:00,
2013-05-30 06:44:00,72.5,65.0,29.75,SW,227,17.0,22.0,78,0.00,,,0.00,weatherlink.com 1.10,2013-05-30 11:44:00,
2013-05-30 06:59:00,72.8,66.0,29.75,South,177,9.0,24.0,79,0.00,,,0.00,weatherlink.com 1.10,2013-05-30 11:59:00,
2013-05-30 07:14:00,73.5,66.0,29.75,South,189,9.0,25.0,78,0.00,,,0.00,weatherlink.com 1.10,2013-05-30 12:14:00,
2013-05-30 07:29:00,74.0,67.0,29.75,SSW,201,15.0,25.0,78,0.00,,,0.00,weatherlink.com 1.10,2013-05-30 12:29:00,
2013-05-30 07:44:00,74.5,67.0,29.75,SW,220,15.0,27.0,78,0.00,,,0.00,weatherlink.com 1.10,2013-05-30 12:44:00,
2013-05-30 07:59:00,74.9,67.0,29.75,SW,221,11.0,23.0,77,0.00,,,0.00,weatherlink.com 1.10,2013-05-30 12:59:00,
2013-05-30 08:14:00,75.4,67.0,29.75,WSW,249,14.0,31.0,76,0.00,,,0.00,weatherlink.com 1.10,2013-05-30 13:14:00,
2013-05-30 08:29:00,75.9,68.0,29.74,SSW,196,5.0,27.0,76,0.00,,,0.00,weatherlink.com 1.10,2013-05-30 13:29:00,
2013-05-30 08:44:00,76.4,68.0,29.74,WSW,245,14.0,25.0,75,0.00,,,0.00,weatherlink.com 1.10,2013-05-30 13:44:00,
2013-05-30 08:59:00,76.7,68.0,29.73,SW,235,17.0,33.0,75,0.00,,,0.00,weatherlink.com 1.10,2013-05-30 13:59:00,
2013-05-30 09:14:00,77.1,68.0,29.73,SW,221,15.0,30.0,74,0.00,,,0.00,weatherlink.com 1.10,2013-05-30 14:14:00,
2013-05-30 09:29:00,77.7,69.0,29.74,South,190,12.0,30.0,74,0.00,,,0.00,weatherlink.com 1.10,2013-05-30 14:29:00,
2013-05-30 09:44:00,77.3,69.0,29.75,WSW,244,15.0,29.0,75,0.00,,,0.00,weatherlink.com 1.10,2013-05-30 14:44:00,
2013-05-30 09:59:00,77.1,68.0,29.75,SSW,207,19.0,28.0,74,0.00,,,0.00,weatherlink.com 1.10,2013-05-30 14:59:00,
2013-05-30 10:14:00,76.8,68.0,29.75,SW,225,15.0,27.0,74,0.00,,,0.00,weatherlink.com 1.10,2013-05-30 15:14:00,
2013-05-30 10:29:00,77.0,68.0,29.74,WSW,248,25.0,29.0,74,0.00,,,0.00,weatherlink.com 1.10,2013-05-30 15:29:00,
2013-05-30 10:44:00,78.4,69.0,29.74,WSW,241,25.0,26.0,72,0.00,,,0.00,weatherlink.com 1.10,2013-05-30 15:44:00,
2013-05-30 11:00:00,78.3,69.0,29.74,SW,221,19.0,26.0,73,0.00,,,0.00,weatherlink.com 1.10,2013-05-30 16:00:00,
2013-05-30 11:14:00,78.3,69.0,29.75,WSW,257,11.0,26.0,72,0.00,,,0.00,weatherlink.com 1.10,2013-05-30 16:14:00,
2013-05-30 11:29:00,77.6,69.0,29.75,SW,215,17.0,25.0,74,0.00,,,0.00,weatherlink.com 1.10,2013-05-30 16:29:00,
2013-05-30 11:44:00,77.5,69.0,29.74,South,184,11.0,28.0,74,0.00,,,0.00,weatherlink.com 1.10,2013-05-30 16:44:00,
2013-05-30 11:59:00,78.2,69.0,29.74,WSW,239,7.0,21.0,74,0.00,,,0.00,weatherlink.com 1.10,2013-05-30 16:59:00,
2013-05-30 12:14:00,79.0,70.0,29.73,WSW,258,15.0,24.0,73,0.00,,,0.00,weatherlink.com 1.10,2013-05-30 17:14:00,
2013-05-30 12:29:00,79.0,68.0,29.74,SW,215,17.0,31.0,69,0.00,,,0.00,weatherlink.com 1.10,2013-05-30 17:29:00,
2013-05-30 12:44:00,80.5,70.0,29.73,South,190,14.0,27.0,70,0.00,,,0.00,weatherlink.com 1.10,2013-05-30 17:44:00,
2013-05-30 12:59:00,81.2,69.0,29.73,South,183,11.0,22.0,67,0.00,,,0.00,weatherlink.com 1.10,2013-05-30 17:59:00,
2013-05-30 13:14:00,81.3,68.0,29.71,SW,236,19.0,24.0,65,0.00,,,0.00,weatherlink.com 1.10,2013-05-30 18:14:00,
2013-05-30 13:44:00,81.1,69.0,29.68,WSW,255,15.0,27.0,67,0.00,,,0.00,weatherlink.com 1.10,2013-05-30 18:44:00,
2013-05-30 13:59:00,82.5,69.0,29.69,SW,220,13.0,25.0,63,0.00,,,0.00,weatherlink.com 1.10,2013-05-30 18:59:00,
2013-05-30 14:14:00,81.3,69.0,29.69,WSW,246,9.0,30.0,67,0.00,,,0.00,weatherlink.com 1.10,2013-05-30 19:14:00,
2013-05-30 14:29:00,73.0,67.0,29.69,SSE,168,10.0,34.0,82,0.00,,,0.00,weatherlink.com 1.10,2013-05-30 19:29:00,
2013-05-30 14:45:00,70.9,68.0,29.71,WSW,249,15.0,24.0,91,0.00,,,0.00,weatherlink.com 1.10,2013-05-30 19:45:00,
2013-05-30 15:00:00,70.9,69.0,29.70,SSE,168,8.0,15.0,93,0.00,,,0.00,weatherlink.com 1.10,2013-05-30 20:00:00,
2013-05-30 15:15:00,71.3,69.0,29.69,SSE,160,3.0,11.0,93,0.00,,,0.00,weatherlink.com 1.10,2013-05-30 20:15:00,
2013-05-30 15:30:00,71.2,69.0,29.69,SSW,199,8.0,20.0,93,0.01,,,0.01,weatherlink.com 1.10,2013-05-30 20:30:00,
2013-05-30 15:45:00,71.4,69.0,29.67,SW,231,13.0,24.0,93,0.01,,,0.01,weatherlink.com 1.10,2013-05-30 20:45:00,
2013-05-30 16:00:00,73.0,70.0,29.64,South,180,8.0,14.0,91,0.01,,,0.01,weatherlink.com 1.10,2013-05-30 21:00:00,
2013-05-30 16:15:00,75.6,71.0,29.63,SSW,198,13.0,15.0,84,0.01,,,0.01,weatherlink.com 1.10,2013-05-30 21:15:00,
2013-05-30 16:30:00,79.0,71.0,29.63,SW,218,14.0,21.0,76,0.00,,,0.01,weatherlink.com 1.10,2013-05-30 21:30:00,
2013-05-30 16:45:00,79.7,69.0,29.63,SSW,193,15.0,30.0,70,0.00,,,0.01,weatherlink.com 1.10,2013-05-30 21:45:00,
2013-05-30 17:00:00,76.5,67.0,29.68,WNW,283,27.0,53.0,72,0.00,,,0.01,weatherlink.com 1.10,2013-05-30 22:00:00,
2013-05-30 17:15:00,64.7,62.0,29.71,WNW,286,14.0,36.0,90,0.00,,,0.01,weatherlink.com 1.10,2013-05-30 22:15:00,
2013-05-30 17:30:00,63.3,61.0,29.66,West,273,11.0,18.0,92,0.00,,,0.01,weatherlink.com 1.10,2013-05-30 22:30:00,
2013-05-30 17:45:00,63.7,61.0,29.67,WNW,297,8.0,19.0,92,0.00,,,0.01,weatherlink.com 1.10,2013-05-30 22:45:00,
2013-05-30 18:00:00,64.0,61.0,29.68,West,280,13.0,15.0,91,0.00,,,0.01,weatherlink.com 1.10,2013-05-30 23:00:00,
2013-05-30 18:15:00,63.5,61.0,29.67,WSW,241,7.0,22.0,91,0.00,,,0.01,weatherlink.com 1.10,2013-05-30 23:15:00,
2013-05-30 18:30:00,63.3,61.0,29.67,SSW,200,4.0,15.0,92,0.00,,,0.01,weatherlink.com 1.10,2013-05-30 23:30:00,
2013-05-30 18:45:00,63.2,61.0,29.68,SSW,196,9.0,14.0,92,0.00,,,0.01,weatherlink.com 1.10,2013-05-30 23:45:00,
2013-05-30 19:00:00,63.0,61.0,29.71,WSW,258,7.0,15.0,93,0.00,,,0.01,weatherlink.com 1.10,2013-05-31 00:00:00,
2013-05-30 19:15:00,63.2,61.0,29.71,WSW,238,9.0,18.0,93,0.00,,,0.01,weatherlink.com 1.10,2013-05-31 00:15:00,
2013-05-30 19:30:00,63.5,61.0,29.70,SSW,200,10.0,19.0,91,0.00,,,0.01,weatherlink.com 1.10,2013-05-31 00:30:00,
2013-05-30 19:45:00,63.7,61.0,29.71,SSW,194,6.0,19.0,90,0.00,,,0.01,weatherlink.com 1.10,2013-05-31 00:45:00,
2013-05-30 20:00:00,63.8,61.0,29.70,SW,214,13.0,20.0,90,0.00,,,0.01,weatherlink.com 1.10,2013-05-31 01:00:00,
2013-05-30 20:15:00,63.8,61.0,29.69,SW,222,6.0,13.0,89,0.00,,,0.01,weatherlink.com 1.10,2013-05-31 01:15:00,
2013-05-30 20:31:00,63.7,61.0,29.71,SW,224,8.0,18.0,90,0.00,,,0.01,weatherlink.com 1.10,2013-05-31 01:31:00,
2013-05-30 20:46:00,63.7,61.0,29.71,South,172,17.0,22.0,90,0.00,,,0.01,weatherlink.com 1.10,2013-05-31 01:46:00,
2013-05-30 21:00:00,63.6,61.0,29.71,SW,215,13.0,19.0,91,0.00,,,0.01,weatherlink.com 1.10,2013-05-31 02:00:00,
2013-05-30 21:16:00,63.5,61.0,29.70,SSW,200,6.0,16.0,91,0.00,,,0.01,weatherlink.com 1.10,2013-05-31 02:16:00,
2013-05-30 21:31:00,63.4,61.0,29.70,West,260,7.0,14.0,91,0.00,,,0.01,weatherlink.com 1.10,2013-05-31 02:31:00,
2013-05-30 21:46:00,63.4,61.0,29.72,WSW,242,13.0,17.0,91,0.00,,,0.01,weatherlink.com 1.10,2013-05-31 02:46:00,
2013-05-30 22:01:00,63.3,61.0,29.72,SSW,194,5.0,14.0,91,0.00,,,0.01,weatherlink.com 1.10,2013-05-31 03:01:00,
2013-05-30 22:16:00,63.4,61.0,29.73,SW,225,7.0,18.0,91,0.00,,,0.01,weatherlink.com 1.10,2013-05-31 03:16:00,
2013-05-30 22:31:00,63.3,61.0,29.72,SW,215,11.0,19.0,91,0.00,,,0.01,weatherlink.com 1.10,2013-05-31 03:31:00,
2013-05-30 22:46:00,63.3,61.0,29.72,South,182,9.0,21.0,91,0.00,,,0.01,weatherlink.com 1.10,2013-05-31 03:46:00,
2013-05-30 23:01:00,63.2,61.0,29.73,South,177,8.0,19.0,92,0.00,,,0.01,weatherlink.com 1.10,2013-05-31 04:01:00,
2013-05-30 23:16:00,63.2,61.0,29.73,South,173,7.0,16.0,92,0.00,,,0.01,weatherlink.com 1.10,2013-05-31 04:16:00,
2013-05-30 23:31:00,63.1,61.0,29.74,WSW,243,12.0,14.0,92,0.00,,,0.01,weatherlink.com 1.10,2013-05-31 04:31:00,
2013-05-30 23:46:00,63.2,61.0,29.73,South,183,9.0,17.0,92,0.00,,,0.01,weatherlink.com 1.10,2013-05-31 04:46:00,